AVA9506 SKRG-SKSM
Flight info
| Callsign | AVA9506 |
|---|---|
| Flight time | 0h 47m |
| Altitude | 34000 |
| Route | BIVIG1B BIVIG UW3 MGN DCT DARNI DARNI1C |
| Aircraft | A320/M-SDE3FGHIRWY/LB1 |
Departure
| Time | 2026-05-05 00:12 |
|---|---|
| Airport | Jose Maria Córdova International Airport (SKRG) |
Arrival
| Time | 2026-05-05 01:00 |
|---|---|
| Airport | Simón Bolívar International Airport (SKSM) |
| Time | Latitude | Longitude | Altitude | Speed | Heading |
|---|---|---|---|---|---|
| 2026-05-04 23:39 | 6.17070 | -75.42693 | 7018 ft | 0 kts | 292° |
| 2026-05-05 00:03 | 6.17068 | -75.42688 | 7000 ft | 4 kts | 295° |
| 2026-05-05 00:04 | 6.17053 | -75.42668 | 7028 ft | 4 kts | 335° |
| 2026-05-05 00:04 | 6.17028 | -75.42664 | 7019 ft | 4 kts | 18° |
| 2026-05-05 00:04 | 6.17008 | -75.42674 | 7020 ft | 1 kts | 37° |
| 2026-05-05 00:08 | 6.17047 | -75.42636 | 7017 ft | 15 kts | 67° |
| 2026-05-05 00:08 | 6.16959 | -75.42538 | 7018 ft | 26 kts | 148° |
| 2026-05-05 00:08 | 6.16773 | -75.42483 | 7013 ft | 30 kts | 179° |
| 2026-05-05 00:09 | 6.16560 | -75.42479 | 7005 ft | 30 kts | 179° |
| 2026-05-05 00:09 | 6.16346 | -75.42480 | 6995 ft | 30 kts | 181° |
| 2026-05-05 00:09 | 6.16133 | -75.42482 | 6988 ft | 30 kts | 179° |
| 2026-05-05 00:09 | 6.15922 | -75.42479 | 6984 ft | 31 kts | 179° |
| 2026-05-05 00:10 | 6.15710 | -75.42477 | 6982 ft | 30 kts | 179° |
| 2026-05-05 00:10 | 6.15500 | -75.42476 | 6980 ft | 30 kts | 179° |
| 2026-05-05 00:10 | 6.15291 | -75.42475 | 6979 ft | 30 kts | 180° |
| 2026-05-05 00:10 | 6.15087 | -75.42474 | 6978 ft | 29 kts | 180° |
| 2026-05-05 00:11 | 6.14907 | -75.42441 | 6976 ft | 23 kts | 118° |
| 2026-05-05 00:11 | 6.14974 | -75.42317 | 6977 ft | 26 kts | 22° |
| 2026-05-05 00:11 | 6.15248 | -75.42307 | 6980 ft | 67 kts | 0° |
| 2026-05-05 00:11 | 6.15943 | -75.42311 | 6982 ft | 130 kts | 360° |
| 2026-05-05 00:12 | 6.17016 | -75.42317 | 7025 ft | 176 kts | 359° |
| 2026-05-05 00:12 | 6.18243 | -75.42324 | 7750 ft | 175 kts | 1° |
| 2026-05-05 00:12 | 6.19453 | -75.42326 | 8342 ft | 174 kts | 1° |
| 2026-05-05 00:12 | 6.20661 | -75.42317 | 8813 ft | 174 kts | 7° |
| 2026-05-05 00:13 | 6.21748 | -75.41863 | 9255 ft | 170 kts | 47° |
| 2026-05-05 00:13 | 6.22298 | -75.40847 | 9709 ft | 167 kts | 85° |
| 2026-05-05 00:13 | 6.22246 | -75.39697 | 10174 ft | 166 kts | 93° |
| 2026-05-05 00:13 | 6.22434 | -75.38501 | 10361 ft | 185 kts | 69° |
| 2026-05-05 00:14 | 6.23000 | -75.37281 | 10489 ft | 205 kts | 66° |
| 2026-05-05 00:14 | 6.23655 | -75.35915 | 10603 ft | 223 kts | 66° |
| 2026-05-05 00:14 | 6.24354 | -75.34475 | 10832 ft | 233 kts | 65° |
| 2026-05-05 00:14 | 6.25073 | -75.33002 | 11200 ft | 236 kts | 65° |
| 2026-05-05 00:15 | 6.25799 | -75.31521 | 11586 ft | 237 kts | 65° |
| 2026-05-05 00:15 | 6.26531 | -75.30027 | 11950 ft | 241 kts | 65° |
| 2026-05-05 00:15 | 6.27304 | -75.28445 | 12051 ft | 264 kts | 65° |
| 2026-05-05 00:15 | 6.28146 | -75.26712 | 12219 ft | 288 kts | 65° |
| 2026-05-05 00:16 | 6.29266 | -75.24952 | 12373 ft | 313 kts | 45° |
| 2026-05-05 00:16 | 6.31200 | -75.23805 | 12514 ft | 339 kts | 18° |
| 2026-05-05 00:16 | 6.33613 | -75.23451 | 12598 ft | 361 kts | 2° |
| 2026-05-05 00:16 | 6.35294 | -75.23501 | 12910 ft | 367 kts | 357° |
| 2026-05-05 00:17 | 6.37855 | -75.23761 | 13500 ft | 373 kts | 354° |
| 2026-05-05 00:17 | 6.40442 | -75.24061 | 14094 ft | 376 kts | 355° |
| 2026-05-05 00:17 | 6.43061 | -75.24289 | 14653 ft | 379 kts | 358° |
| 2026-05-05 00:17 | 6.45706 | -75.24412 | 15210 ft | 381 kts | 0° |
| 2026-05-05 00:18 | 6.49225 | -75.24304 | 15915 ft | 384 kts | 6° |
| 2026-05-05 00:18 | 6.51890 | -75.24057 | 16454 ft | 386 kts | 8° |
| 2026-05-05 00:18 | 6.53683 | -75.23774 | 16800 ft | 387 kts | 13° |
| 2026-05-05 00:18 | 6.56321 | -75.23202 | 17348 ft | 389 kts | 14° |
| 2026-05-05 00:19 | 6.58970 | -75.22603 | 17825 ft | 393 kts | 14° |
| 2026-05-05 00:19 | 6.61635 | -75.21989 | 17827 ft | 391 kts | 14° |
| 2026-05-05 00:19 | 6.64279 | -75.21372 | 17810 ft | 389 kts | 14° |
| 2026-05-05 00:19 | 6.66911 | -75.20756 | 17801 ft | 388 kts | 14° |
| 2026-05-05 00:20 | 6.69540 | -75.20145 | 17798 ft | 388 kts | 14° |
| 2026-05-05 00:20 | 6.72171 | -75.19538 | 17800 ft | 388 kts | 14° |
| 2026-05-05 00:20 | 6.74768 | -75.18944 | 17797 ft | 388 kts | 14° |
| 2026-05-05 00:20 | 6.77397 | -75.18342 | 17773 ft | 388 kts | 14° |
| 2026-05-05 00:21 | 6.80029 | -75.17738 | 17773 ft | 388 kts | 14° |
| 2026-05-05 00:21 | 6.82660 | -75.17133 | 17780 ft | 388 kts | 14° |
| 2026-05-05 00:21 | 6.85289 | -75.16532 | 17785 ft | 387 kts | 14° |
| 2026-05-05 00:21 | 6.87923 | -75.15930 | 17877 ft | 390 kts | 14° |
| 2026-05-05 00:22 | 6.90577 | -75.15324 | 18409 ft | 392 kts | 14° |
| 2026-05-05 00:22 | 6.93247 | -75.14713 | 18845 ft | 394 kts | 14° |
| 2026-05-05 00:22 | 6.95929 | -75.14098 | 19315 ft | 397 kts | 14° |
| 2026-05-05 00:22 | 6.98626 | -75.13478 | 19757 ft | 399 kts | 14° |
| 2026-05-05 00:23 | 7.01338 | -75.12853 | 20206 ft | 401 kts | 14° |
| 2026-05-05 00:23 | 7.04066 | -75.12228 | 20670 ft | 403 kts | 14° |
| 2026-05-05 00:23 | 7.06804 | -75.11605 | 21091 ft | 405 kts | 13° |
| 2026-05-05 00:23 | 7.09561 | -75.10981 | 21521 ft | 407 kts | 13° |
| 2026-05-05 00:24 | 7.12329 | -75.10356 | 21950 ft | 409 kts | 13° |
| 2026-05-05 00:24 | 7.15116 | -75.09724 | 22385 ft | 411 kts | 13° |
| 2026-05-05 00:24 | 7.17915 | -75.09087 | 22812 ft | 414 kts | 13° |
| 2026-05-05 00:24 | 7.20732 | -75.08444 | 23228 ft | 416 kts | 13° |
| 2026-05-05 00:25 | 7.23562 | -75.07801 | 23621 ft | 418 kts | 13° |
| 2026-05-05 00:25 | 7.26406 | -75.07156 | 23966 ft | 420 kts | 13° |
| 2026-05-05 00:25 | 7.29268 | -75.06505 | 24286 ft | 423 kts | 13° |
| 2026-05-05 00:25 | 7.32142 | -75.05849 | 24600 ft | 425 kts | 13° |
| 2026-05-05 00:26 | 7.35035 | -75.05189 | 24903 ft | 427 kts | 13° |
| 2026-05-05 00:26 | 7.37937 | -75.04528 | 25229 ft | 429 kts | 13° |
| 2026-05-05 00:26 | 7.40860 | -75.03863 | 25531 ft | 431 kts | 13° |
| 2026-05-05 00:26 | 7.43793 | -75.03193 | 25823 ft | 434 kts | 13° |
| 2026-05-05 00:27 | 7.46749 | -75.02517 | 26106 ft | 437 kts | 13° |
| 2026-05-05 00:27 | 7.49718 | -75.01841 | 26380 ft | 439 kts | 13° |
| 2026-05-05 00:27 | 7.52707 | -75.01162 | 26659 ft | 442 kts | 13° |
| 2026-05-05 00:27 | 7.55715 | -75.00481 | 26939 ft | 444 kts | 13° |
| 2026-05-05 00:28 | 7.58739 | -74.99798 | 27219 ft | 447 kts | 13° |
| 2026-05-05 00:28 | 7.61783 | -74.99108 | 27492 ft | 449 kts | 13° |
| 2026-05-05 00:28 | 7.64840 | -74.98411 | 27751 ft | 452 kts | 13° |
| 2026-05-05 00:28 | 7.67917 | -74.97707 | 28017 ft | 454 kts | 13° |
| 2026-05-05 00:29 | 7.71008 | -74.96997 | 28281 ft | 457 kts | 13° |
| 2026-05-05 00:29 | 7.74112 | -74.96281 | 28557 ft | 458 kts | 13° |
| 2026-05-05 00:29 | 7.77228 | -74.95569 | 28803 ft | 461 kts | 13° |
| 2026-05-05 00:29 | 7.80365 | -74.94858 | 29046 ft | 463 kts | 13° |
| 2026-05-05 00:30 | 7.83513 | -74.94144 | 29288 ft | 465 kts | 13° |
| 2026-05-05 00:30 | 7.86678 | -74.93425 | 29522 ft | 467 kts | 13° |
| 2026-05-05 00:30 | 7.89855 | -74.92704 | 29755 ft | 469 kts | 13° |
| 2026-05-05 00:30 | 7.93049 | -74.91977 | 29977 ft | 472 kts | 13° |
| 2026-05-05 00:31 | 7.96259 | -74.91245 | 30174 ft | 474 kts | 13° |
| 2026-05-05 00:31 | 7.99477 | -74.90510 | 30392 ft | 475 kts | 13° |
| 2026-05-05 00:31 | 8.02698 | -74.89773 | 30693 ft | 474 kts | 13° |
| 2026-05-05 00:31 | 8.05908 | -74.89038 | 31004 ft | 473 kts | 13° |
| 2026-05-05 00:32 | 8.09114 | -74.88304 | 31321 ft | 471 kts | 13° |
| 2026-05-05 00:32 | 8.12307 | -74.87576 | 31658 ft | 470 kts | 13° |
| 2026-05-05 00:32 | 8.15495 | -74.86851 | 31955 ft | 470 kts | 13° |
| 2026-05-05 00:32 | 8.18683 | -74.86125 | 32251 ft | 469 kts | 13° |
| 2026-05-05 00:33 | 8.21870 | -74.85398 | 32533 ft | 469 kts | 13° |
| 2026-05-05 00:33 | 8.25057 | -74.84671 | 32818 ft | 469 kts | 13° |
| 2026-05-05 00:33 | 8.28242 | -74.83941 | 33114 ft | 469 kts | 13° |
| 2026-05-05 00:33 | 8.31428 | -74.83210 | 33410 ft | 469 kts | 13° |
| 2026-05-05 00:34 | 8.34612 | -74.82481 | 33714 ft | 469 kts | 13° |
| 2026-05-05 00:34 | 8.37799 | -74.81753 | 33876 ft | 470 kts | 13° |
| 2026-05-05 00:34 | 8.40980 | -74.81027 | 33910 ft | 468 kts | 13° |
| 2026-05-05 00:35 | 8.47319 | -74.79576 | 33903 ft | 466 kts | 13° |
| 2026-05-05 00:35 | 8.53649 | -74.78128 | 33903 ft | 466 kts | 13° |
| 2026-05-05 00:36 | 8.59929 | -74.76692 | 33903 ft | 466 kts | 13° |
| 2026-05-05 00:36 | 8.66260 | -74.75239 | 33904 ft | 466 kts | 13° |
| 2026-05-05 00:37 | 8.72588 | -74.73789 | 33905 ft | 466 kts | 13° |
| 2026-05-05 00:37 | 8.78916 | -74.72341 | 33902 ft | 467 kts | 13° |
| 2026-05-05 00:38 | 8.85256 | -74.70888 | 33892 ft | 468 kts | 13° |
| 2026-05-05 00:38 | 8.91610 | -74.69429 | 33894 ft | 468 kts | 13° |
| 2026-05-05 00:39 | 8.97971 | -74.67975 | 33890 ft | 469 kts | 13° |
| 2026-05-05 00:39 | 9.04331 | -74.66515 | 33892 ft | 469 kts | 13° |
| 2026-05-05 00:40 | 9.10696 | -74.65049 | 33897 ft | 469 kts | 13° |
| 2026-05-05 00:40 | 9.17062 | -74.63582 | 33890 ft | 469 kts | 12° |
| 2026-05-05 00:41 | 9.23429 | -74.62115 | 33886 ft | 470 kts | 12° |
| 2026-05-05 00:41 | 9.29805 | -74.60654 | 33887 ft | 470 kts | 12° |
| 2026-05-05 00:42 | 9.36180 | -74.59191 | 33884 ft | 470 kts | 12° |
| 2026-05-05 00:42 | 9.42512 | -74.57739 | 33883 ft | 470 kts | 12° |
| 2026-05-05 00:43 | 9.48885 | -74.56270 | 33885 ft | 470 kts | 12° |
| 2026-05-05 00:43 | 9.55256 | -74.54802 | 33895 ft | 469 kts | 12° |
| 2026-05-05 00:44 | 9.61617 | -74.53334 | 33899 ft | 469 kts | 12° |
| 2026-05-05 00:44 | 9.68000 | -74.51868 | 33522 ft | 474 kts | 12° |
| 2026-05-05 00:44 | 9.71238 | -74.51122 | 32386 ft | 481 kts | 12° |
| 2026-05-05 00:45 | 9.74523 | -74.50362 | 31290 ft | 487 kts | 12° |
| 2026-05-05 00:45 | 9.77838 | -74.49597 | 30408 ft | 488 kts | 12° |
| 2026-05-05 00:45 | 9.81163 | -74.48830 | 29313 ft | 491 kts | 12° |
| 2026-05-05 00:45 | 9.84492 | -74.48063 | 28277 ft | 491 kts | 12° |
| 2026-05-05 00:46 | 9.87828 | -74.47295 | 27207 ft | 491 kts | 12° |
| 2026-05-05 00:46 | 9.91160 | -74.46529 | 26230 ft | 490 kts | 12° |
| 2026-05-05 00:46 | 9.94472 | -74.45765 | 25338 ft | 486 kts | 12° |
| 2026-05-05 00:46 | 9.97761 | -74.45007 | 24429 ft | 483 kts | 12° |
| 2026-05-05 00:47 | 10.01024 | -74.44254 | 23634 ft | 478 kts | 12° |
| 2026-05-05 00:47 | 10.04249 | -74.43509 | 22773 ft | 472 kts | 13° |
| 2026-05-05 00:47 | 10.07393 | -74.42780 | 21937 ft | 467 kts | 13° |
| 2026-05-05 00:47 | 10.10588 | -74.42040 | 21104 ft | 462 kts | 13° |
| 2026-05-05 00:48 | 10.13667 | -74.41327 | 20334 ft | 458 kts | 13° |
| 2026-05-05 00:48 | 10.16761 | -74.40611 | 19590 ft | 454 kts | 14° |
| 2026-05-05 00:48 | 10.19828 | -74.39902 | 18845 ft | 450 kts | 14° |
| 2026-05-05 00:48 | 10.22873 | -74.39197 | 18104 ft | 447 kts | 14° |
| 2026-05-05 00:49 | 10.25897 | -74.38496 | 17372 ft | 443 kts | 14° |
| 2026-05-05 00:49 | 10.28875 | -74.37808 | 16798 ft | 435 kts | 14° |
| 2026-05-05 00:49 | 10.31801 | -74.37131 | 16224 ft | 428 kts | 15° |
| 2026-05-05 00:49 | 10.34681 | -74.36465 | 15656 ft | 421 kts | 15° |
| 2026-05-05 00:50 | 10.37523 | -74.35811 | 15088 ft | 416 kts | 15° |
| 2026-05-05 00:50 | 10.40334 | -74.35165 | 14507 ft | 412 kts | 15° |
| 2026-05-05 00:50 | 10.43116 | -74.34523 | 13904 ft | 409 kts | 15° |
| 2026-05-05 00:50 | 10.45879 | -74.33883 | 13239 ft | 406 kts | 15° |
| 2026-05-05 00:51 | 10.48620 | -74.33247 | 12622 ft | 402 kts | 15° |
| 2026-05-05 00:51 | 10.51338 | -74.32615 | 11933 ft | 399 kts | 15° |
| 2026-05-05 00:51 | 10.54038 | -74.31984 | 11258 ft | 397 kts | 15° |
| 2026-05-05 00:51 | 10.56727 | -74.31360 | 10570 ft | 395 kts | 15° |
| 2026-05-05 00:52 | 10.59402 | -74.30739 | 9858 ft | 394 kts | 15° |
| 2026-05-05 00:52 | 10.62070 | -74.30118 | 9096 ft | 392 kts | 14° |
| 2026-05-05 00:52 | 10.64719 | -74.29503 | 8478 ft | 387 kts | 14° |
| 2026-05-05 00:52 | 10.67278 | -74.28910 | 8337 ft | 367 kts | 14° |
| 2026-05-05 00:53 | 10.69711 | -74.28352 | 8211 ft | 350 kts | 14° |
| 2026-05-05 00:53 | 10.72029 | -74.27820 | 8066 ft | 335 kts | 14° |
| 2026-05-05 00:53 | 10.74275 | -74.27301 | 7763 ft | 327 kts | 14° |
| 2026-05-05 00:53 | 10.76496 | -74.26785 | 7245 ft | 331 kts | 14° |
| 2026-05-05 00:54 | 10.78732 | -74.26262 | 6837 ft | 327 kts | 14° |
| 2026-05-05 00:54 | 10.80942 | -74.25745 | 6386 ft | 325 kts | 14° |
| 2026-05-05 00:54 | 10.83134 | -74.25235 | 5874 ft | 320 kts | 14° |
| 2026-05-05 00:54 | 10.85290 | -74.24733 | 5062 ft | 316 kts | 14° |
| 2026-05-05 00:55 | 10.87421 | -74.24246 | 4244 ft | 312 kts | 13° |
| 2026-05-05 00:55 | 10.89496 | -74.23787 | 3469 ft | 306 kts | 12° |
| 2026-05-05 00:55 | 10.91541 | -74.23339 | 3147 ft | 285 kts | 12° |
| 2026-05-05 00:55 | 10.93364 | -74.22938 | 3025 ft | 259 kts | 12° |
| 2026-05-05 00:56 | 10.95045 | -74.22691 | 3010 ft | 231 kts | 360° |
| 2026-05-05 00:56 | 10.96572 | -74.22728 | 3010 ft | 210 kts | 358° |
| 2026-05-05 00:56 | 10.97981 | -74.22761 | 2886 ft | 198 kts | 359° |
| 2026-05-05 00:56 | 10.99336 | -74.22790 | 2590 ft | 192 kts | 359° |
| 2026-05-05 00:57 | 11.00663 | -74.22817 | 2312 ft | 189 kts | 359° |
| 2026-05-05 00:57 | 11.01969 | -74.22844 | 2021 ft | 186 kts | 359° |
| 2026-05-05 00:57 | 11.03253 | -74.22871 | 1756 ft | 181 kts | 359° |
| 2026-05-05 00:57 | 11.04443 | -74.22896 | 1518 ft | 162 kts | 358° |
| 2026-05-05 00:58 | 11.05525 | -74.22922 | 1266 ft | 150 kts | 358° |
| 2026-05-05 00:58 | 11.06539 | -74.22946 | 1050 ft | 143 kts | 358° |
| 2026-05-05 00:58 | 11.07526 | -74.22965 | 837 ft | 141 kts | 359° |
| 2026-05-05 00:58 | 11.08501 | -74.22988 | 622 ft | 139 kts | 359° |
| 2026-05-05 00:59 | 11.09471 | -74.23006 | 412 ft | 139 kts | 360° |
| 2026-05-05 00:59 | 11.10431 | -74.23026 | 207 ft | 138 kts | 359° |
| 2026-05-05 00:59 | 11.11382 | -74.23049 | 40 ft | 134 kts | 0° |
| 2026-05-05 00:59 | 11.12103 | -74.23065 | 35 ft | 62 kts | 359° |
| 2026-05-05 01:00 | 11.12265 | -74.23066 | 37 ft | 1 kts | 310° |
| 2026-05-05 01:00 | 11.12258 | -74.23071 | 35 ft | 3 kts | 213° |
| 2026-05-05 01:00 | 11.12176 | -74.23089 | 36 ft | 17 kts | 195° |
| 2026-05-05 01:00 | 11.12066 | -74.23116 | 37 ft | 15 kts | 192° |
| 2026-05-05 01:01 | 11.11972 | -74.23137 | 38 ft | 13 kts | 191° |
| 2026-05-05 01:01 | 11.11892 | -74.23154 | 38 ft | 11 kts | 193° |
| 2026-05-05 01:01 | 11.11852 | -74.23199 | 39 ft | 7 kts | 268° |
| 2026-05-05 01:01 | 11.11852 | -74.23217 | 39 ft | 0 kts | 271° |